ADDS METAR Data INFO
IDs: Format: Raw Decoded Include TAF

Data at: 0303 UTC 17 Jan 2018

KXIH 170255Z AUTO 04020G29KT 8SM OVC019 M01/M04 A3064 RMK A01
KXIH 170235Z AUTO 03019G31KT 10SM BKN019 OVC024 M01/M05 A3063 RMK A01
KXIH 170215Z AUTO 05026KT 9SM BKN019 BKN048 OVC060 M01/M05 A3062 RMK A01
KXIH 170155Z AUTO 04027G34KT 9SM BKN019 OVC055 M01/M05 A3061 RMK A01
KXIH 170135Z AUTO 04027G36KT 10SM BKN017 OVC055 M01/M05 A3060 RMK A01
KXIH 170115Z AUTO 04027G33KT 9SM OVC016 M01/M04 A3059 RMK A01
KXIH 170055Z AUTO 04023G31KT 9SM OVC014 M01/M04 A3059 RMK A01
KXIH 170035Z AUTO 04022G30KT 9SM OVC015 M01/M04 A3057 RMK A01
KXIH 170015Z AUTO 04026G32KT 9SM BKN015 BKN042 OVC049 M01/M04 A3056 RMK A01
KXIH 162355Z AUTO 04023G34KT 9SM BKN016 OVC050 M01/M04 A3057 RMK A01
KXIH 162335Z AUTO 04025G33KT 9SM BKN015 OVC050 M01/M04 A3056 RMK A01
KXIH 162315Z AUTO 03023G33KT 10SM OVC014 M01/M03 A3055 RMK A01
KXIH 162255Z AUTO 03021G31KT 10SM BKN014 BKN037 OVC050 M00/M03 A3055 RMK A01
KXIH 162235Z AUTO 04026G32KT 8SM BKN015 BKN039 BKN047 M01/M03 A3054 RMK A01
KXIH 162215Z AUTO 04027G32KT 10SM BKN013 BKN018 BKN046 M00/M03 A3054 RMK A01
KXIH 162155Z AUTO 04024G30KT 7SM BKN013 OVC018 M00/M03 A3054 RMK A01
KXIH 162135Z AUTO 04026G32KT 4SM BR BKN012 OVC018 M00/M02 A3053 RMK A01
KXIH 162115Z AUTO 04025KT 6SM BR SCT010 BKN016 00/M02 A3053 RMK A01
KXIH 162055Z AUTO 04027G33KT 2 1/2SM BR BKN013 OVC018 01/M01 A3052 RMK A01
KXIH 162035Z AUTO 04028G34KT 1 1/2SM BR BKN010 OVC016 01/M01 A3052 RMK A01
KXIH 162015Z AUTO 03022G33KT 2SM BR BKN010 OVC015 01/M01 A3052 RMK A01 VIS 1 1/2V3
KXIH 161955Z AUTO 04024G34KT 5SM BR BKN009 OVC014 01/M01 A3052 RMK A01
KXIH 161935Z AUTO 04031KT 5SM BR BKN010 OVC014 01/M01 A3051 RMK A01
KXIH 161915Z AUTO 04030KT 6SM BR OVC012 01/M01 A3051 RMK A01
KXIH 161855Z AUTO 04025G38KT 6SM BR OVC012 01/M01 A3052 RMK A01
KXIH 161835Z AUTO 04029G35KT 4SM BR BKN009 OVC013 01/M00 A3053 RMK A01
KXIH 161815Z AUTO 04029G38KT 2 1/2SM BR BKN012 01/M00 A3053 RMK A01 VIS 2V4
KXIH 161755Z AUTO 04028G36KT 4SM BR OVC012 01/M00 A3054 RMK A01
KXIH 161735Z AUTO 04027G34KT 6SM BR OVC011 02/M00 A3053 RMK A01
KXIH 161715Z AUTO 04030G39KT 3SM BR OVC012 02/00 A3053 RMK A01
KXIH 161655Z AUTO 04030G36KT 1 1/2SM BR SCT009 OVC015 02/00 A3053 RMK A01
KXIH 161635Z AUTO 04027G37KT 1 1/4SM BR BKN010 OVC014 02/01 A3054 RMK A01
KXIH 161615Z AUTO 04033KT 1 1/4SM BR OVC012 03/01 A3053 RMK A01
KXIH 161555Z AUTO 04031G39KT 1 1/2SM BR OVC010 03/01 A3052 RMK A01
KXIH 161535Z AUTO 04034KT 5SM BR OVC012 03/01 A3051 RMK A01
KXIH 161515Z AUTO 04034G40KT 7SM OVC011 03/01 A3050 RMK A01
KXIH 161455Z AUTO 04027G38KT 8SM OVC010 03/01 A3048 RMK A01
KXIH 161435Z AUTO 04032G38KT 9SM OVC010 03/01 A3047 RMK A01
KXIH 161415Z AUTO 04027G40KT OVC010 04/02 A3046 RMK A01
KXIH 161355Z AUTO 04026G39KT 9SM OVC010 04/02 A3045 RMK A01
KXIH 161335Z AUTO 04028G34KT 10SM OVC010 05/03 A3044 RMK A01
KXIH 161315Z AUTO 03027G33KT 10SM OVC009 05/03 A3042 RMK A01
KXIH 161255Z AUTO 03021G31KT 9SM BKN007 OVC011 06/04 A3043 RMK A01
KXIH 161235Z AUTO 04029G38KT 5SM BR BKN008 OVC012 07/05 A3040 RMK A01
KXIH 161215Z AUTO 03022G34KT 5SM BR BKN009 OVC012 08/07 A3040 RMK A01
KXIH 161155Z AUTO 04026G33KT 5SM BR BKN008 OVC014 09/07 A3038 RMK A01
KXIH 161135Z AUTO 03024KT 4SM BR BKN008 OVC017 10/09 A3037 RMK A01
KXIH 161115Z AUTO 04028KT 4SM BR BKN008 BKN018 OVC033 11/10 A3036 RMK A01
KXIH 161055Z AUTO 04025KT 1 3/4SM BR SCT005 OVC035 11/10 A3035 RMK A01
KXIH 161035Z AUTO 04018G23KT 9SM BKN036 OVC060 13/11 A3034 RMK A01
KXIH 161015Z AUTO 11004KT 10SM SCT055 BKN070 OVC100 14/12 A3032 RMK A01
KXIH 160955Z AUTO 17005KT 10SM FEW070 OVC100 15/12 A3032 RMK A01
KXIH 160935Z AUTO 19006KT 10SM OVC110 15/12 A3031 RMK A01
KXIH 160915Z AUTO 18006KT 10SM OVC100 15/12 A3031 RMK A01
KXIH 160855Z AUTO 18006KT 10SM OVC100 14/12 A3031 RMK A01
KXIH 160835Z AUTO 18006KT 10SM OVC100 14/12 A3031 RMK A01
KXIH 160815Z AUTO 17010KT 10SM BKN100 14/12 A3031 RMK A01
KXIH 160755Z AUTO 17014KT 10SM OVC095 14/13 A3030 RMK A01
KXIH 160735Z AUTO 15011KT 10SM BKN095 14/13 A3030 RMK A01
KXIH 160715Z AUTO 14011KT 10SM SCT095 14/13 A3030 RMK A01
KXIH 160655Z AUTO 14011KT 10SM BKN095 14/13 A3030 RMK A01
KXIH 160635Z AUTO 14013KT 10SM CLR 14/13 A3030 RMK A01
KXIH 160615Z AUTO 14012KT 10SM FEW090 14/13 A3031 RMK A01
KXIH 160555Z AUTO 14012KT 10SM BKN090 14/12 A3031 RMK A01
KXIH 160535Z AUTO 15012KT 10SM CLR 14/12 A3031 RMK A01
KXIH 160515Z AUTO 14012KT 10SM SCT065 BKN090 14/12 A3031 RMK A01
KXIH 160455Z AUTO 14012KT 9SM OVC065 14/12 A3031 RMK A01
KXIH 160435Z AUTO 14012KT 10SM OVC065 14/12 A3031 RMK A01
KXIH 160415Z AUTO 14012KT 10SM OVC065 14/12 A3031 RMK A01
KXIH 160355Z AUTO 14015KT 10SM BKN065 14/12 A3031 RMK A01
KXIH 160335Z AUTO 14013KT 10SM CLR 14/12 A3031 RMK A01
KXIH 160315Z AUTO 13013KT 10SM SCT065 BKN080 14/11 A3031 RMK A01
KXIH 160255Z AUTO 13011KT 10SM FEW065 SCT080 13/11 A3032 RMK A01
KXIH 160235Z AUTO 12011KT 10SM FEW080 13/11 A3031 RMK A01
KXIH 160215Z AUTO 12012KT 10SM CLR 13/11 A3031 RMK A01
KXIH 160155Z AUTO 12012KT 10SM FEW080 13/11 A3030 RMK A01
KXIH 160135Z AUTO 12012KT 9SM SCT080 13/11 A3029 RMK A01
KXIH 160115Z AUTO 12012KT 9SM CLR 14/11 A3029 RMK A01
KXIH 160055Z AUTO 13014KT 10SM SCT070 14/11 A3028 RMK A01
KXIH 160035Z AUTO 13014KT 10SM BKN065 BKN075 14/11 A3028 RMK A01
KXIH 160015Z AUTO 13013KT 10SM FEW070 14/11 A3028 RMK A01
KXIH 152355Z AUTO 13014KT 10SM CLR 14/11 A3028 RMK A01
KXIH 152335Z AUTO 13014KT 10SM CLR 14/11 A3027 RMK A01
KXIH 152315Z AUTO 14014KT 10SM CLR 14/11 A3027 RMK A01
KXIH 152255Z AUTO 14015KT 9SM CLR 14/11 A3027 RMK A01
KXIH 152235Z AUTO 14014KT 7SM FEW065 14/10 A3028 RMK A01
KXIH 152215Z AUTO 14013KT 10SM BKN065 14/10 A3029 RMK A01
KXIH 152155Z AUTO 14013KT 10SM SCT060 14/10 A3029 RMK A01
KXIH 152135Z AUTO 14013KT 9SM CLR 14/10 A3028 RMK A01
KXIH 152115Z AUTO 14014KT 10SM CLR 14/10 A3028 RMK A01
KXIH 152055Z AUTO 14014KT 9SM CLR 14/10 A3029 RMK A01
KXIH 152035Z AUTO 14013KT 10SM CLR 14/10 A3029 RMK A01
KXIH 152015Z AUTO 14012KT 10SM CLR 14/10 A3030 RMK A01
KXIH 151955Z AUTO 15012KT 10SM CLR 14/10 A3031 RMK A01
KXIH 151935Z AUTO 15012KT 10SM CLR 14/10 A3031 RMK A01
KXIH 151915Z AUTO 14011KT 9SM CLR 14/10 A3032 RMK A01
KXIH 151855Z AUTO 15011KT 10SM CLR 14/10 A3033 RMK A01
KXIH 151835Z AUTO 15009KT 10SM CLR 14/10 A3035 RMK A01
KXIH 151815Z AUTO 15010KT 9SM CLR 14/10 A3036 RMK A01
KXIH 151755Z AUTO 15010KT 9SM CLR 14/10 A3036 RMK A01
KXIH 151735Z AUTO 16011KT 10SM CLR 14/09 A3037 RMK A01
KXIH 151715Z AUTO 16010KT 9SM CLR 14/09 A3038 RMK A01
KXIH 151655Z AUTO 16010KT 10SM CLR 14/09 A3039 RMK A01
KXIH 151635Z AUTO 16010KT 9SM CLR 14/09 A3039 RMK A01
KXIH 151615Z AUTO 16011KT 9SM CLR 14/09 A3039 RMK A01
KXIH 151555Z AUTO 16011KT 9SM CLR 15/09 A3038 RMK A01
KXIH 151535Z AUTO 17010KT 10SM CLR 15/09 A3038 RMK A01
KXIH 151515Z AUTO 17010KT 9SM CLR 15/09 A3038 RMK A01